createdAt,value
2018-04-27T00:00:46.437Z,5.80
2018-04-27T00:03:12.752Z,7.03
2018-04-27T00:05:39.073Z,4.80
2018-04-27T00:08:06.132Z,5.57
2018-04-27T00:10:32.414Z,6.43
2018-04-27T00:12:58.923Z,5.97
2018-04-27T00:15:25.252Z,5.87
2018-04-27T00:17:51.577Z,6.10
2018-04-27T00:20:17.925Z,6.87
2018-04-27T00:22:44.937Z,6.23
2018-04-27T00:25:11.299Z,5.60
2018-04-27T00:27:37.630Z,6.57
2018-04-27T00:30:04.742Z,5.50
2018-04-27T00:32:31.179Z,5.70
2018-04-27T00:34:57.473Z,5.43
2018-04-27T00:37:23.799Z,6.20
2018-04-27T00:39:50.165Z,5.53
2018-04-27T00:42:17.215Z,6.00
2018-04-27T00:44:44.343Z,5.30
2018-04-27T00:47:11.414Z,6.03
2018-04-27T00:49:37.713Z,4.90
2018-04-27T00:52:04.043Z,4.83
2018-04-27T00:54:30.331Z,4.37
2018-04-27T00:56:56.632Z,5.30
2018-04-27T00:59:23.684Z,4.50
2018-04-27T01:01:50.759Z,4.50
2018-04-27T01:04:17.093Z,5.03
2018-04-27T01:06:43.438Z,5.60
2018-04-27T01:09:09.766Z,4.80
2018-04-27T01:11:36.046Z,5.23
2018-04-27T01:14:03.093Z,5.00
2018-04-27T01:16:29.367Z,4.53
2018-04-27T01:18:55.675Z,4.93
2018-04-27T01:21:21.937Z,5.67
2018-04-27T01:23:48.305Z,7.43
2018-04-27T01:26:14.583Z,6.37
2018-04-27T01:28:40.876Z,7.33
2018-04-27T01:31:07.889Z,7.03
2018-04-27T01:33:34.184Z,6.67
2018-04-27T01:36:00.496Z,7.27
2018-04-27T01:38:26.821Z,5.50
2018-04-27T01:40:53.852Z,5.97
2018-04-27T01:43:20.879Z,5.87
2018-04-27T01:45:47.185Z,5.73
2018-04-27T01:48:13.533Z,6.60
2018-04-27T01:50:39.833Z,5.63
2018-04-27T01:53:06.149Z,5.70
2018-04-27T01:55:32.400Z,7.20
2018-04-27T01:57:58.737Z,6.13
2018-04-27T02:00:25.027Z,5.53
2018-04-27T02:02:52.048Z,6.90
2018-04-27T02:05:18.404Z,6.53
2018-04-27T02:07:45.458Z,5.40
2018-04-27T02:10:12.532Z,5.90
2018-04-27T02:12:38.875Z,5.57
2018-04-27T02:15:05.231Z,5.97
2018-04-27T02:17:31.549Z,5.63
2018-04-27T02:19:57.787Z,4.87
2018-04-27T02:22:24.122Z,5.00
2018-04-27T02:24:50.410Z,5.97
2018-04-27T02:27:16.704Z,6.17
2018-04-27T02:29:43.008Z,5.80
2018-04-27T02:32:09.378Z,5.33
2018-04-27T02:34:36.469Z,5.83
2018-04-27T02:37:02.780Z,6.10
2018-04-27T02:39:29.074Z,6.30
2018-04-27T02:41:55.380Z,6.00
2018-04-27T02:44:21.642Z,6.20
2018-04-27T02:46:48.735Z,5.90
2018-04-27T02:49:15.030Z,5.90
2018-04-27T02:51:42.060Z,6.00
2018-04-27T02:54:08.360Z,7.00
2018-04-27T02:56:34.660Z,6.63
2018-04-27T02:59:00.908Z,6.63
2018-04-27T03:01:27.179Z,6.67
2018-04-27T03:03:53.469Z,7.57
2018-04-27T03:06:19.755Z,6.60
2018-04-27T03:08:46.807Z,6.47
2018-04-27T03:11:13.157Z,6.13
2018-04-27T03:13:39.462Z,6.53
2018-04-27T03:16:06.537Z,5.83
2018-04-27T03:18:32.901Z,7.17
2018-04-27T03:20:59.232Z,6.77
2018-04-27T03:23:25.561Z,6.70
2018-04-27T03:25:51.843Z,7.30
2018-04-27T03:28:18.965Z,6.93
2018-04-27T03:30:45.245Z,8.73
2018-04-27T03:33:11.552Z,7.20
2018-04-27T03:35:38.632Z,6.83
2018-04-27T03:38:05.018Z,7.60
2018-04-27T03:40:31.303Z,7.63
2018-04-27T03:42:57.652Z,7.67
2018-04-27T03:45:24.031Z,9.60
2018-04-27T03:47:50.326Z,7.00
2018-04-27T03:50:23.647Z,8.00
2018-04-27T03:52:50.647Z,8.07
2018-04-27T03:55:16.953Z,7.53
2018-04-27T03:57:43.212Z,8.80
2018-04-27T04:00:28.172Z,8.43
2018-04-27T04:03:13.022Z,9.40
2018-04-27T04:05:39.439Z,9.07
2018-04-27T04:08:05.956Z,9.37
2018-04-27T04:10:33.064Z,9.50
2018-04-27T04:12:59.344Z,9.53
2018-04-27T04:15:26.457Z,10.10
2018-04-27T04:17:52.724Z,8.27
2018-04-27T04:20:19.799Z,9.30
2018-04-27T04:22:46.129Z,8.23
2018-04-27T04:25:12.429Z,9.50
2018-04-27T04:27:39.477Z,8.43
2018-04-27T04:30:06.512Z,8.57
2018-04-27T04:32:33.606Z,8.40
2018-04-27T04:34:59.940Z,8.43
2018-04-27T04:37:26.247Z,9.17
2018-04-27T04:39:53.296Z,7.07
2018-04-27T04:42:19.574Z,8.27
2018-04-27T04:44:45.856Z,8.03
2018-04-27T04:47:12.923Z,7.10
2018-04-27T04:49:39.562Z,7.73
2018-04-27T04:52:05.863Z,8.73
2018-04-27T04:54:32.977Z,7.07
2018-04-27T04:57:00.027Z,7.73
2018-04-27T04:59:26.346Z,7.77
2018-04-27T05:01:52.689Z,8.70
2018-04-27T05:04:18.986Z,8.20
2018-04-27T05:06:45.279Z,8.50
2018-04-27T05:09:12.351Z,9.17
2018-04-27T05:11:38.649Z,8.03
2018-04-27T05:14:04.924Z,8.03
2018-04-27T05:16:31.327Z,7.50
2018-04-27T05:19:03.431Z,8.27
2018-04-27T05:21:29.747Z,7.33
2018-04-27T05:23:56.059Z,6.93
2018-04-27T05:26:23.072Z,8.30
2018-04-27T05:28:49.379Z,7.73
2018-04-27T05:31:24.190Z,8.37
2018-04-27T05:33:50.486Z,8.13
2018-04-27T05:36:19.256Z,7.77
2018-04-27T05:38:45.519Z,8.00
2018-04-27T05:41:11.795Z,8.50
2018-04-27T05:43:38.095Z,9.17
2018-04-27T05:46:04.419Z,9.20
2018-04-27T05:48:30.748Z,8.47
2018-04-27T05:50:57.052Z,8.17
2018-04-27T05:53:24.119Z,8.90
2018-04-27T05:55:51.157Z,7.63
2018-04-27T05:58:17.499Z,8.60
2018-04-27T06:00:43.805Z,8.40
2018-04-27T06:03:10.161Z,8.10
2018-04-27T06:05:37.179Z,7.20
2018-04-27T06:08:03.472Z,8.70
2018-04-27T06:10:29.788Z,8.57
2018-04-27T06:12:56.106Z,7.63
2018-04-27T06:15:22.392Z,8.77
2018-04-27T06:17:48.667Z,7.60
2018-04-27T06:20:15.051Z,7.27
2018-04-27T06:22:45.278Z,7.70
2018-04-27T06:25:11.641Z,7.27
2018-04-27T06:27:38.665Z,12.77
2018-04-27T06:30:05.015Z,7.60
2018-04-27T06:32:32.284Z,8.30
2018-04-27T06:34:58.602Z,8.43
2018-04-27T06:37:25.669Z,8.70
2018-04-27T06:39:52.050Z,8.40
2018-04-27T06:42:18.395Z,7.70
2018-04-27T06:44:44.703Z,7.60
2018-04-27T06:47:11.008Z,8.03
2018-04-27T06:49:37.306Z,7.90
2018-04-27T06:52:04.342Z,7.80
2018-04-27T06:54:31.376Z,7.13
2018-04-27T06:56:57.649Z,7.57
2018-04-27T06:59:24.003Z,7.20
2018-04-27T07:01:51.039Z,7.20
2018-04-27T07:04:17.372Z,6.70
2018-04-27T07:06:43.722Z,8.37
2018-04-27T07:09:10.030Z,6.17
2018-04-27T07:11:36.329Z,7.40
2018-04-27T07:14:02.604Z,6.90
2018-04-27T07:16:28.890Z,6.87
2018-04-27T07:18:55.933Z,7.80
2018-04-27T07:21:22.234Z,6.50
2018-04-27T07:23:48.507Z,9.07
2018-04-27T07:26:15.593Z,6.43
2018-04-27T07:28:41.927Z,5.90
2018-04-27T07:31:08.162Z,5.70
2018-04-27T07:33:34.464Z,6.00
2018-04-27T07:36:00.722Z,5.73
2018-04-27T07:38:27.037Z,6.17
2018-04-27T07:40:53.301Z,5.97
2018-04-27T07:43:19.556Z,5.10
2018-04-27T07:45:46.631Z,5.00
2018-04-27T07:48:12.916Z,5.13
2018-04-27T07:50:39.217Z,6.10
2018-04-27T07:53:05.514Z,6.10
2018-04-27T07:55:31.833Z,6.27
2018-04-27T07:57:58.875Z,5.40
2018-04-27T08:00:25.927Z,5.67
2018-04-27T08:02:52.947Z,4.90
2018-04-27T08:05:19.310Z,5.70
2018-04-27T08:07:46.319Z,5.60
2018-04-27T08:10:12.618Z,9.13
2018-04-27T08:12:38.918Z,11.50
2018-04-27T08:15:05.252Z,5.10
2018-04-27T08:17:32.361Z,5.53
2018-04-27T08:19:58.671Z,5.43
2018-04-27T08:22:24.994Z,6.20
2018-04-27T08:24:51.332Z,4.83
2018-04-27T08:27:17.746Z,7.13
2018-04-27T08:29:44.040Z,4.80
2018-04-27T08:32:10.325Z,5.00
2018-04-27T08:34:36.594Z,4.20
2018-04-27T08:37:02.876Z,4.93
2018-04-27T08:39:29.150Z,5.67
2018-04-27T08:41:55.486Z,5.10
2018-04-27T08:44:28.781Z,4.70
2018-04-27T08:46:55.081Z,3.80
2018-04-27T08:49:21.376Z,4.40
2018-04-27T08:51:47.720Z,5.00
2018-04-27T08:54:13.996Z,7.20
2018-04-27T08:56:40.267Z,4.10
2018-04-27T08:59:06.542Z,5.53
2018-04-27T09:01:32.830Z,3.80
2018-04-27T09:03:59.064Z,4.13
2018-04-27T09:06:25.398Z,3.90
2018-04-27T09:08:51.832Z,3.73
2018-04-27T09:11:18.198Z,3.93
2018-04-27T09:13:44.579Z,3.37
2018-04-27T09:16:11.743Z,4.00
2018-04-27T09:18:38.032Z,3.53
2018-04-27T09:21:04.415Z,3.50
2018-04-27T09:23:30.721Z,3.37
2018-04-27T09:25:57.765Z,2.80
2018-04-27T09:28:24.782Z,2.90
2018-04-27T09:30:51.103Z,3.03
2018-04-27T09:33:17.444Z,2.67
2018-04-27T09:35:43.758Z,2.43
2018-04-27T09:38:10.042Z,2.67
2018-04-27T09:40:36.369Z,2.30
2018-04-27T09:43:03.469Z,2.27
2018-04-27T09:45:29.824Z,2.20
2018-04-27T09:48:03.044Z,2.80
2018-04-27T09:50:29.379Z,2.30
2018-04-27T09:52:56.495Z,2.10
2018-04-27T09:55:22.780Z,5.90
2018-04-27T09:57:49.056Z,2.20
2018-04-27T10:00:15.349Z,2.20
2018-04-27T10:02:41.651Z,3.73
2018-04-27T10:05:08.662Z,2.30
2018-04-27T10:07:35.011Z,2.90
2018-04-27T10:10:02.188Z,3.63
2018-04-27T10:12:28.481Z,3.07
2018-04-27T10:14:54.885Z,2.17
2018-04-27T10:17:21.899Z,2.10
2018-04-27T10:19:48.233Z,2.57
2018-04-27T10:22:14.542Z,1.87
2018-04-27T10:24:41.575Z,2.00
2018-04-27T10:27:08.048Z,2.53
2018-04-27T10:29:34.415Z,3.10
2018-04-27T10:32:00.775Z,2.77
2018-04-27T10:34:27.080Z,3.20
2018-04-27T10:36:53.356Z,3.00
2018-04-27T10:39:20.351Z,2.20
2018-04-27T10:41:46.662Z,1.80
2018-04-27T10:44:12.974Z,2.30
2018-04-27T10:46:39.277Z,1.60
2018-04-27T10:49:05.623Z,1.80
2018-04-27T10:51:32.665Z,1.90
2018-04-27T10:53:59.682Z,1.60
2018-04-27T10:56:25.966Z,2.30
2018-04-27T10:58:52.254Z,1.50
2018-04-27T11:01:18.522Z,1.43
2018-04-27T11:03:44.817Z,1.87
2018-04-27T11:06:11.224Z,1.50
2018-04-27T11:08:37.520Z,1.73
2018-04-27T11:11:03.893Z,1.30
2018-04-27T11:13:30.138Z,2.60
2018-04-27T11:15:56.475Z,1.40
2018-04-27T11:18:22.806Z,1.40
2018-04-27T11:20:49.070Z,1.90
2018-04-27T11:23:15.373Z,9.07
2018-04-27T11:25:42.408Z,1.57
2018-04-27T11:28:08.693Z,1.53
2018-04-27T11:30:35.008Z,2.17
2018-04-27T11:33:01.283Z,2.23
2018-04-27T11:35:27.567Z,1.50
2018-04-27T11:37:53.944Z,5.70
2018-04-27T11:40:20.214Z,3.10
2018-04-27T11:42:47.270Z,2.50
2018-04-27T11:45:14.269Z,2.67
2018-04-27T11:47:40.568Z,2.30
2018-04-27T11:50:07.628Z,2.47
2018-04-27T11:52:33.917Z,2.57
2018-04-27T11:55:00.941Z,2.37
2018-04-27T11:57:27.266Z,3.20
2018-04-27T11:59:53.573Z,2.10
2018-04-27T12:02:19.858Z,1.83
2018-04-27T12:04:46.951Z,2.27
2018-04-27T12:07:13.269Z,1.87
2018-04-27T12:09:39.574Z,3.37
2018-04-27T12:12:06.614Z,2.33
2018-04-27T12:14:33.644Z,2.40
2018-04-27T12:16:59.949Z,2.97
2018-04-27T12:19:26.217Z,2.70
2018-04-27T12:21:53.254Z,2.83
2018-04-27T12:24:19.536Z,2.60
2018-04-27T12:26:45.833Z,2.50
2018-04-27T12:29:12.823Z,2.20
2018-04-27T12:31:39.225Z,2.10
2018-04-27T12:34:05.470Z,2.93
2018-04-27T12:36:31.747Z,2.10
2018-04-27T12:38:58.107Z,2.00
2018-04-27T12:41:24.313Z,2.10
2018-04-27T12:43:50.575Z,2.27
2018-04-27T12:46:16.870Z,2.83
2018-04-27T12:48:43.148Z,2.13
2018-04-27T12:51:09.431Z,1.90
2018-04-27T12:53:35.885Z,1.87
2018-04-27T12:56:02.128Z,2.20
2018-04-27T12:58:28.469Z,2.03
2018-04-27T13:00:57.200Z,1.70
2018-04-27T13:03:23.470Z,2.57
2018-04-27T13:05:50.490Z,1.80
2018-04-27T13:08:16.796Z,1.63
2018-04-27T13:10:43.148Z,1.27
2018-04-27T13:13:09.456Z,1.47
2018-04-27T13:15:36.279Z,1.30
2018-04-27T13:18:02.644Z,1.93
2018-04-27T13:20:29.101Z,2.60
2018-04-27T13:22:56.158Z,1.90
2018-04-27T13:25:23.150Z,1.30
2018-04-27T13:27:49.425Z,1.63
2018-04-27T13:30:15.693Z,2.10
2018-04-27T13:32:42.083Z,3.47
2018-04-27T13:35:08.361Z,2.80
2018-04-27T13:37:34.799Z,2.60
2018-04-27T13:40:01.079Z,2.87
2018-04-27T13:42:27.553Z,2.50
2018-04-27T13:44:53.857Z,2.23
2018-04-27T13:47:20.855Z,2.10
2018-04-27T13:49:47.139Z,1.73
2018-04-27T13:52:14.155Z,3.07
2018-04-27T13:54:40.446Z,2.70
2018-04-27T13:57:06.771Z,3.20
2018-04-27T13:59:33.059Z,2.10
2018-04-27T14:01:59.343Z,2.23
2018-04-27T14:04:25.681Z,2.20
2018-04-27T14:06:51.952Z,2.00
2018-04-27T14:09:19.056Z,1.80
2018-04-27T14:11:45.342Z,1.97
2018-04-27T14:14:12.378Z,4.17
2018-04-27T14:16:38.694Z,2.50
2018-04-27T14:19:05.029Z,4.27
2018-04-27T14:21:31.362Z,1.90
2018-04-27T14:23:57.642Z,2.13
2018-04-27T14:26:23.907Z,3.13
2018-04-27T14:28:50.223Z,1.97
2018-04-27T14:31:16.500Z,2.40
2018-04-27T14:33:43.599Z,2.00
2018-04-27T14:36:10.576Z,1.60
2018-04-27T14:38:36.893Z,1.97
2018-04-27T14:41:03.299Z,2.20
2018-04-27T14:43:29.714Z,1.93
2018-04-27T14:45:56.075Z,2.67
2018-04-27T14:48:22.484Z,2.90
2018-04-27T14:50:48.831Z,2.03
2018-04-27T14:53:15.163Z,2.07
2018-04-27T14:55:41.479Z,1.83
2018-04-27T14:58:07.827Z,1.70
2018-04-27T15:00:34.160Z,1.93
2018-04-27T15:03:00.516Z,1.90
2018-04-27T15:05:26.793Z,1.63
2018-04-27T15:07:53.839Z,2.60
2018-04-27T15:10:20.987Z,2.33
2018-04-27T15:12:48.023Z,2.40
2018-04-27T15:15:15.093Z,1.83
2018-04-27T15:17:41.383Z,1.40
2018-04-27T15:20:07.702Z,1.60
2018-04-27T15:22:34.006Z,2.73
2018-04-27T15:25:00.303Z,1.93
2018-04-27T15:27:27.349Z,1.80
2018-04-27T15:29:54.427Z,1.80
2018-04-27T15:32:20.745Z,2.90
2018-04-27T15:34:47.136Z,1.53
2018-04-27T15:37:13.430Z,2.00
2018-04-27T15:39:39.720Z,1.40
2018-04-27T15:42:06.718Z,2.20
2018-04-27T15:44:33.020Z,1.73
2018-04-27T15:46:59.373Z,1.80
2018-04-27T15:49:25.691Z,1.60
2018-04-27T15:51:51.970Z,3.37
2018-04-27T15:54:18.284Z,1.70
2018-04-27T15:56:44.650Z,2.53
2018-04-27T15:59:11.811Z,1.80
2018-04-27T16:01:38.169Z,1.83
2018-04-27T16:04:04.560Z,2.80
2018-04-27T16:06:31.637Z,1.70
2018-04-27T16:08:57.979Z,1.90
2018-04-27T16:11:24.341Z,1.60
2018-04-27T16:13:50.662Z,2.00
2018-04-27T16:16:16.960Z,1.70
2018-04-27T16:18:43.206Z,1.47
2018-04-27T16:21:09.496Z,2.00
2018-04-27T16:23:35.713Z,1.70
2018-04-27T16:26:01.983Z,1.77
2018-04-27T16:28:28.247Z,2.13
2018-04-27T16:30:54.582Z,2.87
2018-04-27T16:33:20.866Z,2.03
2018-04-27T16:35:47.276Z,1.60
2018-04-27T16:38:13.621Z,2.30
2018-04-27T16:40:40.599Z,2.07
2018-04-27T16:43:06.903Z,2.83
2018-04-27T16:45:33.931Z,1.90
2018-04-27T16:48:00.225Z,1.97
2018-04-27T16:50:26.564Z,2.27
2018-04-27T16:52:52.849Z,2.80
2018-04-27T16:55:19.174Z,1.83
2018-04-27T16:57:46.193Z,2.03
2018-04-27T17:00:12.545Z,1.40
2018-04-27T17:02:39.187Z,1.80
2018-04-27T17:05:06.195Z,2.30
2018-04-27T17:07:33.385Z,2.00
2018-04-27T17:10:00.378Z,1.73
2018-04-27T17:12:26.644Z,3.10
2018-04-27T17:14:52.954Z,2.43
2018-04-27T17:17:19.250Z,1.70
2018-04-27T17:19:45.569Z,1.93
2018-04-27T17:22:11.869Z,1.97
2018-04-27T17:24:38.171Z,2.60
2018-04-27T17:27:04.455Z,2.00
2018-04-27T17:29:31.301Z,2.37
2018-04-27T17:31:58.206Z,1.60
2018-04-27T17:34:24.571Z,2.50
2018-04-27T17:36:50.918Z,2.20
2018-04-27T17:39:17.209Z,2.13
2018-04-27T17:41:43.602Z,2.13
2018-04-27T17:44:09.915Z,2.93
2018-04-27T17:46:36.239Z,2.63
2018-04-27T17:49:02.528Z,2.37
2018-04-27T17:51:28.841Z,2.40
2018-04-27T17:53:55.129Z,2.50
2018-04-27T17:56:21.436Z,2.60
2018-04-27T17:58:48.446Z,3.77
2018-04-27T18:01:14.753Z,3.70
2018-04-27T18:03:41.043Z,2.70
2018-04-27T18:06:08.124Z,3.03
2018-04-27T18:08:34.457Z,3.40
2018-04-27T18:11:00.802Z,3.10
2018-04-27T18:13:27.092Z,1.83
2018-04-27T18:15:54.132Z,6.03
2018-04-27T18:18:21.188Z,3.00
2018-04-27T18:20:48.257Z,2.63
2018-04-27T18:23:14.565Z,2.13
2018-04-27T18:25:41.664Z,2.40
2018-04-27T18:28:08.905Z,2.10
2018-04-27T18:30:35.166Z,4.30
2018-04-27T18:33:01.468Z,3.10
2018-04-27T18:35:27.786Z,4.20
2018-04-27T18:37:54.095Z,3.97
2018-04-27T18:40:21.141Z,3.60
2018-04-27T18:42:48.247Z,3.73
2018-04-27T18:45:14.581Z,3.83
2018-04-27T18:47:41.634Z,10.97
2018-04-27T18:50:08.063Z,7.73
2018-04-27T18:52:34.380Z,5.77
2018-04-27T18:55:00.663Z,4.23
2018-04-27T18:57:27.764Z,4.20
2018-04-27T18:59:54.058Z,3.73
2018-04-27T19:02:20.390Z,3.03
2018-04-27T19:04:46.651Z,3.57
2018-04-27T19:07:12.934Z,4.40
2018-04-27T19:09:40.797Z,4.33
2018-04-27T19:12:07.842Z,4.37
2018-04-27T19:14:34.911Z,4.73
2018-04-27T19:17:01.238Z,5.10
2018-04-27T19:19:27.634Z,5.10
2018-04-27T19:21:53.946Z,4.47
2018-04-27T19:24:20.239Z,4.20
2018-04-27T19:26:46.523Z,3.80
2018-04-27T19:29:12.854Z,3.80
2018-04-27T19:31:39.258Z,3.70
2018-04-27T19:34:05.570Z,3.90
2018-04-27T19:36:31.916Z,3.43
2018-04-27T19:38:58.221Z,3.20
2018-04-27T19:41:24.527Z,3.97
2018-04-27T19:43:50.794Z,4.17
2018-04-27T19:46:17.107Z,3.47
2018-04-27T19:48:44.216Z,4.17
2018-04-27T19:51:10.496Z,4.00
2018-04-27T19:53:36.783Z,3.80
2018-04-27T19:56:03.108Z,4.13
2018-04-27T19:58:29.454Z,4.67
2018-04-27T20:00:55.777Z,5.47
2018-04-27T20:03:22.092Z,5.70
2018-04-27T20:05:48.372Z,5.33
2018-04-27T20:08:15.398Z,6.03
2018-04-27T20:10:41.847Z,6.43
2018-04-27T20:13:10.880Z,5.80
2018-04-27T20:15:39.811Z,5.97
2018-04-27T20:18:07.133Z,4.53
2018-04-27T20:20:33.456Z,5.90
2018-04-27T20:23:00.676Z,4.90
2018-04-27T20:25:27.758Z,3.90
2018-04-27T20:27:54.115Z,4.27
2018-04-27T20:30:20.443Z,4.67
2018-04-27T20:32:47.515Z,3.87
2018-04-27T20:35:14.562Z,3.33
2018-04-27T20:37:41.690Z,3.47
2018-04-27T20:40:14.357Z,4.40
2018-04-27T20:42:42.786Z,4.03
2018-04-27T20:45:09.883Z,3.27
2018-04-27T20:47:36.159Z,3.80
2018-04-27T20:50:04.247Z,3.30
2018-04-27T20:52:35.488Z,5.07
2018-04-27T20:55:06.418Z,3.67
2018-04-27T20:57:33.416Z,3.80
2018-04-27T20:59:59.786Z,4.67
2018-04-27T21:02:26.467Z,3.27
2018-04-27T21:04:53.251Z,4.30
2018-04-27T21:07:20.044Z,4.33
2018-04-27T21:09:46.616Z,3.73
2018-04-27T21:12:12.878Z,5.17
2018-04-27T21:14:39.190Z,4.73
2018-04-27T21:17:05.457Z,4.87
2018-04-27T21:19:31.803Z,4.63
2018-04-27T21:21:58.125Z,5.37
2018-04-27T21:24:24.367Z,4.33
2018-04-27T21:26:50.694Z,5.87
2018-04-27T21:29:17.818Z,6.13
2018-04-27T21:31:44.086Z,5.57
2018-04-27T21:34:10.372Z,5.70
2018-04-27T21:36:36.663Z,5.50
2018-04-27T21:39:06.972Z,6.30
2018-04-27T21:41:49.091Z,5.00
2018-04-27T21:47:42.712Z,5.27
2018-04-27T21:50:09.030Z,4.50
2018-04-27T21:52:50.367Z,4.90
2018-04-27T21:55:16.683Z,3.60
2018-04-27T21:58:02.623Z,5.03
2018-04-27T22:00:28.924Z,5.10
2018-04-27T22:02:58.124Z,5.90
2018-04-27T22:08:30.988Z,6.80
2018-04-27T22:10:58.270Z,6.33
2018-04-27T22:13:24.576Z,6.53
2018-04-27T22:15:51.669Z,5.57
2018-04-27T22:18:17.994Z,6.50
2018-04-27T22:20:45.102Z,7.90
2018-04-27T22:23:11.414Z,5.60
2018-04-27T22:25:38.646Z,4.70
2018-04-27T22:28:04.925Z,4.20
2018-04-27T22:30:35.595Z,4.83
2018-04-27T22:33:30.102Z,4.50
2018-04-27T22:42:14.530Z,5.10
2018-04-27T22:44:48.988Z,5.67
2018-04-27T22:47:19.816Z,5.37
2018-04-27T22:49:46.881Z,5.50
2018-04-27T22:52:13.167Z,5.20
2018-04-27T22:54:39.470Z,5.67
2018-04-27T23:00:14.429Z,5.70
2018-04-27T23:02:40.721Z,6.03
2018-04-27T23:05:10.868Z,6.20
2018-04-27T23:07:37.165Z,6.40
2018-04-27T23:10:03.496Z,4.70
2018-04-27T23:12:29.771Z,6.03
2018-04-27T23:14:56.115Z,6.47
2018-04-27T23:17:22.443Z,7.13
2018-04-27T23:20:04.683Z,6.30
2018-04-27T23:22:41.423Z,6.10
2018-04-27T23:25:17.725Z,5.97
2018-04-27T23:27:45.829Z,5.90
2018-04-27T23:30:12.156Z,6.70
2018-04-27T23:32:39.333Z,6.27
2018-04-27T23:35:05.672Z,6.97
2018-04-27T23:37:32.046Z,6.57
2018-04-27T23:39:59.062Z,6.77
2018-04-27T23:42:25.390Z,7.57
2018-04-27T23:44:51.723Z,7.10
2018-04-27T23:47:18.031Z,6.83
2018-04-27T23:49:44.362Z,6.60
2018-04-27T23:52:10.704Z,6.20
2018-04-27T23:54:36.996Z,6.10
2018-04-27T23:57:03.302Z,6.10
2018-04-27T23:59:33.314Z,6.70
